Time;durP1;ratioP1;P1;durP2;ratioP2;P2;SDS_P1;SDS_P2;PMS_P1;PMS_P2;Temp;Humidity;BMP_temperature;BMP_pressure;BME280_temperature;BME280_humidity;BME280_pressure;Samples;Min_cycle;Max_cycle;Signal;HPM_P1;HPM_P2
2024/01/28 00:01:45;;;;;;;6.30;3.90;;;5.00;99.90;;;;;;5010316;28;20196;-83
2024/01/28 00:04:12;;;;;;;7.77;4.00;;;5.10;99.90;;;;;;4995241;28;20218;-84
2024/01/28 00:06:40;;;;;;;7.43;4.10;;;5.10;99.90;;;;;;5005550;28;20206;-84
2024/01/28 00:09:08;;;;;;;9.13;4.93;;;5.20;99.90;;;;;;4982350;28;20237;-84
2024/01/28 00:11:36;;;;;;;9.03;4.00;;;5.20;99.90;;;;;;5022473;28;20213;-83
2024/01/28 00:14:05;;;;;;;11.30;4.80;;;5.10;99.90;;;;;;5009466;28;20230;-83
2024/01/28 00:16:33;;;;;;;8.10;3.93;;;5.10;99.90;;;;;;5008081;28;20194;-84
2024/01/28 00:19:00;;;;;;;7.73;3.70;;;5.00;99.90;;;;;;4990389;28;20212;-85
2024/01/28 00:21:28;;;;;;;9.03;3.53;;;5.10;99.90;;;;;;5009734;28;20200;-83
2024/01/28 00:23:57;;;;;;;5.37;3.40;;;5.10;99.90;;;;;;4993564;28;20214;-83
2024/01/28 00:26:24;;;;;;;5.90;3.50;;;5.20;99.90;;;;;;4994942;28;20192;-83
2024/01/28 00:28:52;;;;;;;5.70;2.87;;;5.10;99.90;;;;;;4992923;28;20228;-83
2024/01/28 00:31:21;;;;;;;6.27;2.50;;;5.10;99.90;;;;;;4978002;28;20199;-83
2024/01/28 00:33:48;;;;;;;6.13;2.63;;;5.20;99.90;;;;;;4983340;28;20577;-83
2024/01/28 00:36:16;;;;;;;7.97;3.00;;;5.10;99.90;;;;;;4992559;28;20536;-84
2024/01/28 00:38:43;;;;;;;5.63;2.53;;;5.10;99.90;;;;;;4995558;28;20195;-83
2024/01/28 00:41:21;;;;;;;6.53;2.70;;;5.10;99.90;;;;;;4989986;28;20212;-85
2024/01/28 00:43:49;;;;;;;7.90;2.70;;;5.10;99.90;;;;;;4992917;28;20204;-84
2024/01/28 00:46:17;;;;;;;4.83;2.47;;;5.20;99.90;;;;;;4977092;28;20210;-83
2024/01/28 00:48:45;;;;;;;8.53;3.03;;;5.20;99.90;;;;;;4978618;28;20194;-83
2024/01/28 00:51:14;;;;;;;7.80;2.70;;;5.30;99.90;;;;;;5009298;28;20202;-86
2024/01/28 00:53:41;;;;;;;3.77;2.37;;;5.20;99.90;;;;;;4994349;28;20196;-85
2024/01/28 00:56:09;;;;;;;5.03;2.40;;;5.20;99.90;;;;;;4996654;28;20213;-83
2024/01/28 00:58:36;;;;;;;4.83;2.70;;;5.20;99.90;;;;;;5001080;28;20203;-83
2024/01/28 01:01:04;;;;;;;4.20;2.37;;;5.20;99.90;;;;;;5006010;28;20223;-83
2024/01/28 01:03:31;;;;;;;6.30;2.80;;;5.30;99.90;;;;;;4993462;28;20211;-83
2024/01/28 01:06:00;;;;;;;7.60;2.57;;;5.20;99.90;;;;;;5009815;28;20226;-83
2024/01/28 01:08:28;;;;;;;7.23;2.53;;;5.10;99.90;;;;;;4997228;28;20211;-83
2024/01/28 01:10:55;;;;;;;4.53;2.67;;;5.20;99.90;;;;;;4995404;28;20584;-85
2024/01/28 01:13:23;;;;;;;5.70;2.40;;;5.20;99.90;;;;;;5019822;28;20209;-83
2024/01/28 01:15:50;;;;;;;4.80;2.70;;;5.20;99.90;;;;;;4993956;28;20235;-83
2024/01/28 01:18:18;;;;;;;4.43;2.60;;;5.20;99.90;;;;;;4988922;28;20198;-83
2024/01/28 01:20:45;;;;;;;7.43;2.70;;;5.30;99.90;;;;;;4996561;28;20699;-83
2024/01/28 01:23:14;;;;;;;7.10;3.00;;;5.30;99.90;;;;;;5007242;28;20196;-83
2024/01/28 01:25:42;;;;;;;3.77;2.47;;;5.20;99.90;;;;;;5004370;28;20226;-85
2024/01/28 01:28:09;;;;;;;6.53;3.07;;;5.20;99.90;;;;;;5009673;28;20204;-83
2024/01/28 01:30:39;;;;;;;6.93;3.30;;;5.10;99.90;;;;;;4996769;28;20192;-83
2024/01/28 01:33:06;;;;;;;6.47;3.07;;;5.10;99.90;;;;;;4996088;28;20213;-83
2024/01/28 01:35:34;;;;;;;7.30;2.77;;;4.90;99.90;;;;;;5005311;28;20224;-85
2024/01/28 01:38:01;;;;;;;6.17;2.83;;;4.60;99.90;;;;;;5002226;28;20211;-83
2024/01/28 01:40:30;;;;;;;5.80;3.40;;;4.30;99.90;;;;;;5009817;28;20227;-84
2024/01/28 01:42:58;;;;;;;5.93;3.10;;;4.20;99.90;;;;;;4998646;28;20201;-83
2024/01/28 01:45:25;;;;;;;5.83;3.60;;;3.90;99.90;;;;;;5009876;28;20248;-83
2024/01/28 01:47:53;;;;;;;6.20;3.03;;;3.90;99.90;;;;;;4996546;28;20208;-83
2024/01/28 01:50:20;;;;;;;5.60;3.20;;;3.90;99.90;;;;;;4994307;28;20211;-85
2024/01/28 01:52:48;;;;;;;5.70;3.30;;;3.70;99.90;;;;;;5011211;28;20219;-83
2024/01/28 01:55:16;;;;;;;6.73;2.93;;;3.60;99.90;;;;;;4997661;28;20219;-83
2024/01/28 01:57:45;;;;;;;11.37;3.77;;;3.40;99.90;;;;;;4986844;28;20206;-83
2024/01/28 02:00:14;;;;;;;8.77;4.00;;;3.30;99.90;;;;;;5016502;28;20212;-83
2024/01/28 02:02:45;;;;;;;8.03;4.27;;;3.40;99.90;;;;;;4995614;28;20776;-83
2024/01/28 02:05:13;;;;;;;10.60;5.07;;;3.50;99.90;;;;;;5008313;28;20230;-83
2024/01/28 02:07:40;;;;;;;13.97;5.23;;;3.50;99.90;;;;;;5004109;28;20197;-83
2024/01/28 02:10:09;;;;;;;9.33;6.03;;;3.50;99.90;;;;;;4998902;28;20196;-83
2024/01/28 02:12:37;;;;;;;8.43;5.53;;;3.50;99.90;;;;;;4987631;28;20211;-85
2024/01/28 02:15:10;;;;;;;12.43;5.67;;;3.60;99.90;;;;;;5007298;28;20693;-85
2024/01/28 02:17:38;;;;;;;10.63;5.40;;;3.60;99.90;;;;;;5011861;28;20214;-83
2024/01/28 02:20:06;;;;;;;10.90;5.70;;;3.50;99.90;;;;;;4998762;28;20232;-84
2024/01/28 02:22:34;;;;;;;10.10;5.27;;;3.60;99.90;;;;;;5003937;28;20224;-83
2024/01/28 02:25:03;;;;;;;10.73;5.47;;;3.50;99.90;;;;;;5000348;28;20226;-84
2024/01/28 02:27:31;;;;;;;8.47;4.70;;;3.30;99.90;;;;;;4996943;28;20195;-84
2024/01/28 02:29:59;;;;;;;9.77;5.23;;;3.30;99.90;;;;;;5022444;28;20198;-83
2024/01/28 02:32:26;;;;;;;9.43;5.10;;;3.20;99.90;;;;;;5003316;28;20205;-83
2024/01/28 02:34:54;;;;;;;9.37;5.27;;;3.00;99.90;;;;;;4997482;28;20221;-84
2024/01/28 02:37:27;;;;;;;6.93;4.70;;;3.10;99.90;;;;;;4984048;28;20190;-83
2024/01/28 02:39:55;;;;;;;9.10;4.73;;;3.30;99.90;;;;;;4996799;28;20574;-83
2024/01/28 02:42:24;;;;;;;9.60;4.20;;;3.30;99.90;;;;;;4981518;28;20214;-83
2024/01/28 02:44:51;;;;;;;9.70;4.80;;;3.30;99.90;;;;;;5012049;28;20232;-83
2024/01/28 02:47:19;;;;;;;8.67;4.63;;;3.10;99.90;;;;;;4994460;28;20202;-83
2024/01/28 02:49:46;;;;;;;11.67;4.53;;;3.00;99.90;;;;;;5010978;28;20205;-83
2024/01/28 02:52:14;;;;;;;7.90;4.33;;;3.00;99.90;;;;;;4993365;28;20198;-83
2024/01/28 02:54:41;;;;;;;8.03;4.90;;;3.00;99.90;;;;;;5014196;28;20216;-85
2024/01/28 02:57:09;;;;;;;9.80;4.60;;;3.00;99.90;;;;;;5011574;28;20209;-83
2024/01/28 02:59:38;;;;;;;7.90;4.90;;;3.00;99.90;;;;;;4961848;28;20197;-85
2024/01/28 03:02:06;;;;;;;8.53;4.57;;;2.90;99.90;;;;;;4985484;28;20212;-83
2024/01/28 03:04:37;;;;;;;11.37;5.00;;;2.90;99.90;;;;;;4983395;28;20224;-84
2024/01/28 03:07:04;;;;;;;7.23;4.37;;;2.80;99.90;;;;;;5004232;28;20204;-84
2024/01/28 03:09:32;;;;;;;9.70;4.60;;;2.90;99.90;;;;;;5021487;28;20215;-84
2024/01/28 03:12:00;;;;;;;7.87;4.47;;;2.90;99.90;;;;;;5019710;28;20551;-84
2024/01/28 03:14:27;;;;;;;8.33;4.20;;;2.80;99.90;;;;;;4992343;28;20235;-83
2024/01/28 03:16:56;;;;;;;8.70;4.50;;;2.90;99.90;;;;;;5009077;28;20198;-83
2024/01/28 03:19:24;;;;;;;6.67;3.77;;;3.00;99.90;;;;;;4973393;28;20199;-84
2024/01/28 03:21:52;;;;;;;5.23;3.53;;;2.90;99.90;;;;;;5004189;28;20565;-83
2024/01/28 03:24:19;;;;;;;7.17;3.57;;;3.00;99.90;;;;;;4998798;28;20220;-83
2024/01/28 03:26:47;;;;;;;6.57;3.60;;;3.00;99.90;;;;;;5027108;28;20543;-84
2024/01/28 03:29:14;;;;;;;5.40;3.20;;;3.10;99.90;;;;;;5006458;28;20565;-83
2024/01/28 03:31:42;;;;;;;5.97;3.17;;;3.20;99.90;;;;;;5026620;28;20184;-83
2024/01/28 03:34:11;;;;;;;6.73;4.10;;;3.20;99.90;;;;;;5013461;28;20574;-83
2024/01/28 03:36:39;;;;;;;6.37;3.10;;;3.10;99.90;;;;;;4994744;28;20204;-84
2024/01/28 03:39:07;;;;;;;7.03;3.67;;;3.10;99.90;;;;;;4971446;28;20289;-83
2024/01/28 03:41:35;;;;;;;5.93;3.00;;;2.80;99.90;;;;;;4994564;28;20278;-84
2024/01/28 03:44:02;;;;;;;5.93;3.23;;;2.80;99.90;;;;;;5019699;28;20202;-83
2024/01/28 03:46:30;;;;;;;5.47;3.30;;;2.80;99.90;;;;;;4984790;28;20203;-83
2024/01/28 03:48:57;;;;;;;6.37;3.33;;;2.80;99.90;;;;;;4995344;28;20194;-84
2024/01/28 03:51:26;;;;;;;5.43;2.73;;;2.80;99.90;;;;;;5010707;28;20204;-84
2024/01/28 03:53:54;;;;;;;5.33;3.13;;;2.70;99.90;;;;;;4993518;28;20196;-84
2024/01/28 03:56:21;;;;;;;7.33;2.80;;;2.80;99.90;;;;;;5005505;28;20204;-83
2024/01/28 03:58:49;;;;;;;5.43;2.90;;;2.80;99.90;;;;;;5001611;28;20215;-83
2024/01/28 04:01:17;;;;;;;4.10;2.60;;;2.70;99.90;;;;;;5002699;28;20214;-83
2024/01/28 04:03:44;;;;;;;5.27;3.27;;;2.60;99.90;;;;;;5006793;28;20204;-82
2024/01/28 04:06:12;;;;;;;6.00;3.27;;;2.50;99.90;;;;;;4984599;28;20204;-83
2024/01/28 04:08:40;;;;;;;4.93;2.83;;;2.70;99.90;;;;;;5012915;28;20209;-84
2024/01/28 04:11:08;;;;;;;7.17;2.87;;;2.60;99.90;;;;;;4996817;28;20554;-83
2024/01/28 04:13:35;;;;;;;5.03;3.27;;;2.50;99.90;;;;;;5019185;28;20205;-84
2024/01/28 04:16:03;;;;;;;6.67;3.60;;;2.70;99.90;;;;;;5014207;28;20234;-83
2024/01/28 04:18:30;;;;;;;6.47;3.20;;;2.60;99.90;;;;;;4985819;28;20206;-82
2024/01/28 04:20:58;;;;;;;8.47;3.67;;;2.60;99.90;;;;;;4994697;28;20216;-83
2024/01/28 04:23:25;;;;;;;9.27;3.87;;;2.50;99.90;;;;;;5004160;28;20709;-84
2024/01/28 04:25:54;;;;;;;6.03;3.43;;;2.50;99.90;;;;;;5001290;28;20233;-83
2024/01/28 04:28:23;;;;;;;8.50;4.20;;;2.40;99.90;;;;;;5012656;28;20207;-83
2024/01/28 04:30:51;;;;;;;10.77;4.53;;;2.30;99.90;;;;;;4991889;28;20197;-83
2024/01/28 04:33:19;;;;;;;6.47;3.70;;;2.40;99.90;;;;;;4984421;28;20215;-85
2024/01/28 04:35:46;;;;;;;7.93;3.97;;;2.50;99.90;;;;;;5010967;28;20220;-83
2024/01/28 04:38:14;;;;;;;7.47;3.77;;;2.60;99.90;;;;;;5009701;28;20208;-83
2024/01/28 04:40:41;;;;;;;7.37;3.77;;;2.50;99.90;;;;;;4999661;28;20200;-83
2024/01/28 04:43:10;;;;;;;6.07;3.70;;;2.60;99.90;;;;;;4996580;28;20208;-83
2024/01/28 04:45:38;;;;;;;7.70;3.93;;;2.60;99.90;;;;;;4978060;28;20231;-84
2024/01/28 04:48:07;;;;;;;7.50;4.00;;;2.50;99.90;;;;;;4998815;28;20205;-83
2024/01/28 04:50:34;;;;;;;7.67;3.63;;;2.60;99.90;;;;;;4977850;28;20208;-83
2024/01/28 04:53:02;;;;;;;8.17;4.13;;;2.70;99.90;;;;;;4989219;28;20210;-83
2024/01/28 04:55:29;;;;;;;6.50;3.90;;;2.70;99.90;;;;;;5016588;28;20231;-83
2024/01/28 04:57:57;;;;;;;6.47;4.30;;;2.70;99.90;;;;;;5019321;28;20203;-83
2024/01/28 05:00:26;;;;;;;7.90;3.70;;;2.80;99.90;;;;;;4998991;28;20623;-83
2024/01/28 05:02:56;;;;;;;10.53;4.23;;;2.80;99.90;;;;;;5013537;28;20556;-82
2024/01/28 05:05:24;;;;;;;5.27;3.73;;;2.80;99.90;;;;;;5030215;28;20216;-83
2024/01/28 05:07:51;;;;;;;7.13;4.27;;;2.80;99.90;;;;;;5000767;28;20670;-82
2024/01/28 05:10:19;;;;;;;6.57;4.10;;;2.70;99.90;;;;;;5016928;28;20213;-82
2024/01/28 05:12:47;;;;;;;5.93;4.20;;;2.70;99.90;;;;;;5024556;28;20203;-81
2024/01/28 05:17:48;;;;;;;8.27;3.97;;;2.50;99.90;;;;;;5021716;28;20687;-82
2024/01/28 05:20:16;;;;;;;5.40;4.23;;;2.60;99.90;;;;;;5019447;28;20278;-81
2024/01/28 05:22:44;;;;;;;6.00;3.83;;;2.60;99.90;;;;;;5018772;28;20225;-81
2024/01/28 05:25:11;;;;;;;5.30;4.23;;;2.60;99.90;;;;;;5021227;28;20227;-82
2024/01/28 05:27:39;;;;;;;7.17;3.77;;;2.50;99.90;;;;;;5045005;28;20219;-83
2024/01/28 05:30:07;;;;;;;7.00;3.70;;;2.50;99.90;;;;;;5037989;28;20214;-82
2024/01/28 05:32:35;;;;;;;7.13;4.17;;;2.50;99.90;;;;;;5021256;28;20195;-82
2024/01/28 05:35:04;;;;;;;6.00;4.47;;;2.50;99.90;;;;;;5024617;28;20200;-82
2024/01/28 05:37:32;;;;;;;6.83;4.27;;;2.40;99.90;;;;;;5019812;28;20673;-82
2024/01/28 05:40:02;;;;;;;7.63;4.37;;;2.40;99.90;;;;;;5012251;28;20198;-82
2024/01/28 05:42:30;;;;;;;7.03;3.73;;;2.40;99.90;;;;;;5019358;28;20211;-82
2024/01/28 05:44:57;;;;;;;6.63;4.53;;;2.40;99.90;;;;;;5018795;28;20202;-82
2024/01/28 05:50:53;;;;;;;6.67;4.40;;;2.20;99.90;;;;;;5026336;28;20187;-82
2024/01/28 05:53:20;;;;;;;9.43;4.30;;;2.20;99.90;;;;;;5018171;28;20199;-82
2024/01/28 05:55:47;;;;;;;5.97;4.03;;;2.20;99.90;;;;;;5018563;28;20223;-82
2024/01/28 05:58:15;;;;;;;7.57;4.20;;;2.20;99.90;;;;;;5019278;28;20199;-82
2024/01/28 06:00:42;;;;;;;5.73;3.50;;;2.10;99.90;;;;;;5018815;28;20214;-82
2024/01/28 06:03:10;;;;;;;9.13;3.97;;;2.10;99.90;;;;;;5018606;28;20214;-82
2024/01/28 06:05:39;;;;;;;7.83;4.07;;;2.00;99.90;;;;;;5017261;28;20219;-82
2024/01/28 06:08:09;;;;;;;8.70;4.63;;;1.90;99.90;;;;;;5018326;28;20210;-82
2024/01/28 06:10:36;;;;;;;6.10;3.83;;;1.80;99.90;;;;;;5019571;28;20665;-82
2024/01/28 06:13:04;;;;;;;6.63;4.37;;;1.80;99.90;;;;;;5034691;28;20206;-82
2024/01/28 06:15:32;;;;;;;7.33;4.40;;;1.90;99.90;;;;;;5017562;28;20211;-82
2024/01/28 06:18:01;;;;;;;6.50;4.23;;;2.00;99.90;;;;;;5036169;28;20202;-82
2024/01/28 06:20:28;;;;;;;7.43;5.00;;;2.00;99.90;;;;;;5016272;28;20206;-82
2024/01/28 06:22:56;;;;;;;6.00;3.93;;;2.00;99.90;;;;;;5017450;28;20211;-83
2024/01/28 06:25:25;;;;;;;7.37;4.00;;;2.00;99.90;;;;;;5017662;28;20209;-82
2024/01/28 06:27:53;;;;;;;10.77;4.67;;;1.90;99.90;;;;;;5018306;28;20190;-82
2024/01/28 06:30:20;;;;;;;8.30;5.20;;;1.70;99.90;;;;;;5038776;28;20664;-82
2024/01/28 06:32:48;;;;;;;6.53;4.03;;;1.60;99.90;;;;;;5013710;28;20218;-82
2024/01/28 06:35:15;;;;;;;9.03;5.13;;;1.70;99.90;;;;;;5024965;28;20207;-82
2024/01/28 06:37:43;;;;;;;7.47;4.47;;;1.90;99.90;;;;;;5019008;28;20236;-81
2024/01/28 06:40:11;;;;;;;10.40;5.17;;;1.90;99.90;;;;;;5026149;28;20273;-82
2024/01/28 06:42:41;;;;;;;7.70;4.13;;;1.90;99.90;;;;;;5017379;28;20215;-81
2024/01/28 06:45:10;;;;;;;8.50;4.57;;;1.90;99.90;;;;;;5023454;28;20567;-82
2024/01/28 06:47:38;;;;;;;11.80;4.90;;;1.80;99.90;;;;;;5024741;28;20237;-82
2024/01/28 06:50:06;;;;;;;12.63;5.17;;;1.80;99.90;;;;;;5026425;28;20205;-81
2024/01/28 06:52:34;;;;;;;8.13;4.63;;;1.90;99.90;;;;;;5029500;28;20203;-81
2024/01/28 06:55:01;;;;;;;7.60;4.80;;;1.80;99.90;;;;;;5022916;28;20657;-80
2024/01/28 06:57:31;;;;;;;5.90;4.27;;;1.90;99.90;;;;;;5041962;28;20230;-80
2024/01/28 07:00:00;;;;;;;6.27;4.10;;;1.90;99.90;;;;;;5022923;28;20221;-80
2024/01/28 07:02:27;;;;;;;11.13;4.77;;;1.80;99.90;;;;;;5016539;28;20222;-80
2024/01/28 07:05:00;;;;;;;8.97;5.47;;;1.90;99.90;;;;;;5022690;28;20203;-80
2024/01/28 07:07:28;;;;;;;7.20;4.80;;;1.90;99.90;;;;;;5035686;28;20229;-81
2024/01/28 07:09:55;;;;;;;8.27;4.93;;;1.90;99.90;;;;;;5040330;28;20215;-81
2024/01/28 07:12:23;;;;;;;11.17;5.30;;;1.90;99.90;;;;;;5040232;28;20218;-81
2024/01/28 07:14:50;;;;;;;7.23;4.27;;;2.00;99.90;;;;;;5026173;28;20210;-81
2024/01/28 07:17:19;;;;;;;7.53;4.90;;;2.30;99.90;;;;;;5027027;28;20688;-81
2024/01/28 07:19:47;;;;;;;11.03;5.00;;;2.20;99.90;;;;;;5030348;28;20203;-81
2024/01/28 07:22:14;;;;;;;6.93;4.47;;;2.40;99.90;;;;;;5032918;28;20206;-81
2024/01/28 07:24:42;;;;;;;8.80;5.13;;;2.10;99.90;;;;;;5023062;28;20194;-81
2024/01/28 07:27:09;;;;;;;9.93;4.63;;;2.10;99.90;;;;;;5025506;28;20219;-81
2024/01/28 07:29:37;;;;;;;8.57;5.07;;;2.10;99.90;;;;;;5028305;28;20201;-82
2024/01/28 07:32:05;;;;;;;7.50;5.07;;;2.20;99.90;;;;;;5042434;28;20206;-82
2024/01/28 07:34:34;;;;;;;7.60;4.87;;;2.00;99.90;;;;;;5024904;28;20545;-81
2024/01/28 07:37:01;;;;;;;6.57;4.30;;;2.00;99.90;;;;;;5026539;28;20215;-81
2024/01/28 07:39:33;;;;;;;6.10;4.27;;;1.80;99.90;;;;;;5023537;28;20198;-82
2024/01/28 07:42:01;;;;;;;9.80;4.90;;;1.90;99.90;;;;;;5023198;28;20203;-81
2024/01/28 07:44:28;;;;;;;6.17;4.07;;;1.90;99.90;;;;;;5038334;28;20220;-82
2024/01/28 07:46:56;;;;;;;6.17;4.57;;;2.00;99.90;;;;;;5026144;28;20230;-82
2024/01/28 07:49:23;;;;;;;6.93;4.07;;;2.20;99.90;;;;;;5019719;28;20196;-82
2024/01/28 07:51:52;;;;;;;8.17;4.47;;;2.30;99.90;;;;;;5022415;28;20202;-82
2024/01/28 07:54:20;;;;;;;8.87;4.73;;;2.50;99.90;;;;;;5018602;28;20201;-81
2024/01/28 07:56:47;;;;;;;8.50;4.50;;;2.50;99.90;;;;;;5026425;28;20226;-81
2024/01/28 07:59:15;;;;;;;5.73;4.17;;;2.70;99.90;;;;;;5018431;28;20207;-81
2024/01/28 08:01:42;;;;;;;7.63;4.57;;;2.80;99.90;;;;;;5014271;28;20195;-81
2024/01/28 08:04:10;;;;;;;7.97;4.80;;;2.60;99.90;;;;;;5021753;28;20223;-81
2024/01/28 08:06:41;;;;;;;8.17;5.07;;;2.70;99.90;;;;;;5016565;28;20233;-81
2024/01/28 08:09:10;;;;;;;12.67;5.40;;;2.80;99.90;;;;;;5021901;28;20203;-81
2024/01/28 08:11:38;;;;;;;7.80;4.83;;;2.90;99.90;;;;;;5039375;28;20204;-81
2024/01/28 08:14:05;;;;;;;7.43;4.77;;;3.10;99.90;;;;;;5021440;28;20202;-81
2024/01/28 08:16:33;;;;;;;6.60;3.90;;;3.10;99.90;;;;;;5033892;28;20233;-81
2024/01/28 08:19:04;;;;;;;10.50;4.47;;;3.20;99.90;;;;;;5029063;28;20206;-81
2024/01/28 08:21:33;;;;;;;8.07;4.23;;;3.20;99.90;;;;;;5023393;28;20573;-81
2024/01/28 08:24:01;;;;;;;5.90;4.37;;;3.40;99.90;;;;;;5042433;28;20220;-81
2024/01/28 08:26:30;;;;;;;7.30;4.67;;;3.50;99.90;;;;;;5020749;28;20222;-81
2024/01/28 08:28:57;;;;;;;5.87;4.43;;;3.70;99.90;;;;;;5021640;28;20195;-81
2024/01/28 08:31:25;;;;;;;6.10;4.40;;;3.80;99.90;;;;;;5026709;28;20219;-81
2024/01/28 08:33:52;;;;;;;7.80;4.93;;;3.90;99.90;;;;;;5027859;28;20199;-81
2024/01/28 08:36:20;;;;;;;6.67;4.27;;;3.90;99.90;;;;;;5020334;28;20225;-82
2024/01/28 08:38:47;;;;;;;8.27;4.20;;;4.00;99.90;;;;;;5026304;28;20201;-81
2024/01/28 08:41:15;;;;;;;6.17;4.53;;;4.10;99.90;;;;;;5024549;28;20214;-81
2024/01/28 08:43:44;;;;;;;8.37;4.60;;;4.20;99.90;;;;;;5038701;28;20218;-81
2024/01/28 08:46:11;;;;;;;6.43;4.50;;;4.20;99.90;;;;;;5038380;28;20227;-82
2024/01/28 08:48:39;;;;;;;7.57;5.10;;;4.40;99.90;;;;;;5040310;28;20200;-81
2024/01/28 08:51:06;;;;;;;6.23;4.77;;;4.50;99.90;;;;;;5028810;28;20202;-82
2024/01/28 08:53:36;;;;;;;12.77;5.80;;;4.60;99.90;;;;;;5022888;28;20195;-82
2024/01/28 08:56:04;;;;;;;13.10;7.13;;;4.70;99.90;;;;;;5028019;28;20234;-82
2024/01/28 08:58:33;;;;;;;10.03;6.90;;;4.70;99.90;;;;;;5047291;28;20205;-81
2024/01/28 09:01:02;;;;;;;12.63;8.20;;;4.70;99.90;;;;;;5039861;28;20187;-81
2024/01/28 09:03:29;;;;;;;12.93;8.27;;;4.70;99.90;;;;;;5042316;28;20221;-81
2024/01/28 09:05:57;;;;;;;12.33;8.50;;;4.60;99.90;;;;;;5022948;28;20225;-80
2024/01/28 09:08:25;;;;;;;14.17;9.00;;;4.60;99.90;;;;;;5047201;28;20209;-81
2024/01/28 09:10:52;;;;;;;15.67;9.20;;;4.60;99.90;;;;;;5033167;28;20201;-81
2024/01/28 09:13:20;;;;;;;12.97;8.67;;;4.80;99.90;;;;;;5024965;28;20682;-81
2024/01/28 09:15:50;;;;;;;11.27;7.90;;;4.90;99.90;;;;;;5034074;28;20228;-81
2024/01/28 09:18:19;;;;;;;13.70;7.37;;;5.00;99.90;;;;;;5030163;28;20206;-81
2024/01/28 09:20:49;;;;;;;12.07;7.43;;;5.10;99.90;;;;;;5029007;28;20667;-81
2024/01/28 09:23:16;;;;;;;11.27;8.30;;;5.20;99.90;;;;;;5028773;28;20194;-81
2024/01/28 09:25:44;;;;;;;11.20;8.10;;;5.20;99.90;;;;;;5027542;28;20236;-81
2024/01/28 09:28:11;;;;;;;12.37;8.60;;;5.30;99.90;;;;;;5048216;28;20202;-81
2024/01/28 09:30:41;;;;;;;12.90;8.60;;;5.30;99.90;;;;;;5031449;28;20212;-81
2024/01/28 09:33:10;;;;;;;12.83;8.70;;;5.40;99.90;;;;;;5031728;28;20199;-81
2024/01/28 09:35:39;;;;;;;13.33;8.87;;;5.60;99.90;;;;;;5036794;28;20707;-81
2024/01/28 09:38:07;;;;;;;11.67;7.90;;;5.70;99.90;;;;;;5040507;28;20206;-81
2024/01/28 09:40:35;;;;;;;14.30;8.50;;;5.70;99.90;;;;;;5025553;28;20202;-81
2024/01/28 09:43:07;;;;;;;13.47;8.23;;;5.60;99.90;;;;;;5043318;28;20219;-81
2024/01/28 09:45:40;;;;;;;10.00;7.97;;;5.70;99.90;;;;;;5039342;28;20257;-81
2024/01/28 09:48:08;;;;;;;9.37;6.97;;;5.80;99.90;;;;;;5033312;28;20277;-81
2024/01/28 09:50:37;;;;;;;10.00;6.77;;;5.90;99.90;;;;;;5061152;28;20206;-81
2024/01/28 09:53:06;;;;;;;7.77;5.40;;;6.10;99.90;;;;;;5038138;28;20210;-80
2024/01/28 09:55:34;;;;;;;10.53;6.70;;;6.20;99.90;;;;;;5056082;28;20194;-81
2024/01/28 09:58:02;;;;;;;8.60;5.63;;;6.40;99.90;;;;;;5025323;28;20193;-81
2024/01/28 10:00:30;;;;;;;7.13;4.73;;;6.50;99.90;;;;;;5060680;28;20206;-81
2024/01/28 10:02:57;;;;;;;6.70;5.40;;;6.70;99.90;;;;;;5061236;28;20191;-81
2024/01/28 10:05:25;;;;;;;10.43;7.23;;;6.90;99.90;;;;;;5042824;28;20219;-81
2024/01/28 10:08:01;;;;;;;10.60;7.77;;;6.80;99.50;;;;;;5051095;28;20194;-81
2024/01/28 10:10:30;;;;;;;9.50;7.57;;;6.90;99.90;;;;;;5036338;28;20194;-81
2024/01/28 10:12:57;;;;;;;10.33;7.23;;;7.00;99.90;;;;;;5046274;28;20225;-81
2024/01/28 10:15:27;;;;;;;8.03;6.40;;;7.00;99.90;;;;;;5027339;28;20201;-81
2024/01/28 10:17:54;;;;;;;9.20;6.57;;;7.00;99.80;;;;;;5025581;28;20202;-81
2024/01/28 10:20:23;;;;;;;6.13;5.53;;;7.10;99.90;;;;;;5027725;28;20203;-81
2024/01/28 10:22:52;;;;;;;10.20;7.70;;;7.20;99.80;;;;;;5043056;28;20191;-81
2024/01/28 10:25:22;;;;;;;8.43;5.93;;;7.30;99.80;;;;;;5036332;28;20213;-81
2024/01/28 10:27:51;;;;;;;8.67;5.30;;;7.60;98.50;;;;;;5050778;28;20207;-80
2024/01/28 10:30:19;;;;;;;7.30;5.60;;;7.90;98.70;;;;;;5026981;28;20197;-81
2024/01/28 10:32:46;;;;;;;4.60;2.80;;;8.00;97.90;;;;;;5024145;28;20215;-81
2024/01/28 10:35:16;;;;;;;3.90;2.80;;;8.40;93.70;;;;;;5031382;28;20210;-81
2024/01/28 10:37:44;;;;;;;4.93;3.87;;;8.70;92.80;;;;;;5028923;28;20210;-80
2024/01/28 10:40:14;;;;;;;2.63;1.60;;;8.80;93.50;;;;;;5022581;28;20203;-81
2024/01/28 10:42:42;;;;;;;3.43;1.67;;;9.10;89.20;;;;;;5039129;28;20210;-80
2024/01/28 10:45:13;;;;;;;3.87;1.90;;;9.30;87.70;;;;;;5023157;28;20222;-80
2024/01/28 10:47:48;;;;;;;2.50;1.37;;;9.50;86.10;;;;;;5019689;28;20219;-81
2024/01/28 10:50:20;;;;;;;3.03;1.60;;;9.60;83.00;;;;;;5018152;28;20203;-81
2024/01/28 10:52:48;;;;;;;2.10;1.50;;;9.90;82.50;;;;;;5022835;28;20207;-81
2024/01/28 10:55:16;;;;;;;2.60;1.43;;;9.90;81.60;;;;;;5028777;28;20198;-81
2024/01/28 10:57:45;;;;;;;3.10;1.30;;;10.20;78.90;;;;;;5031089;28;20210;-82
2024/01/28 11:00:20;;;;;;;1.60;1.20;;;10.40;74.90;;;;;;5026288;28;20207;-81
2024/01/28 11:02:49;;;;;;;2.03;1.17;;;10.50;73.00;;;;;;5024963;28;20198;-82
2024/01/28 11:05:20;;;;;;;2.97;1.40;;;10.50;73.90;;;;;;5028865;28;20215;-82
2024/01/28 11:07:48;;;;;;;2.07;1.40;;;10.60;72.10;;;;;;5042696;28;20199;-82
2024/01/28 11:10:15;;;;;;;1.63;1.33;;;10.80;71.30;;;;;;5032383;28;20559;-82
2024/01/28 11:12:43;;;;;;;2.83;1.63;;;10.90;69.00;;;;;;5026787;28;20203;-82
2024/01/28 11:15:16;;;;;;;2.27;1.20;;;10.80;67.70;;;;;;5030213;28;20214;-82
2024/01/28 11:17:44;;;;;;;2.50;1.20;;;10.90;67.20;;;;;;5025074;28;20214;-82
2024/01/28 11:20:16;;;;;;;1.93;1.33;;;11.10;67.00;;;;;;5025639;28;20226;-82
2024/01/28 11:22:51;;;;;;;1.20;1.05;;;11.10;65.70;;;;;;5023396;28;20207;-82
2024/01/28 11:25:21;;;;;;;2.57;1.30;;;11.20;65.70;;;;;;5020393;28;20222;-82
2024/01/28 11:27:48;;;;;;;2.30;1.50;;;11.30;65.60;;;;;;5024675;28;20564;-82
2024/01/28 11:30:20;;;;;;;2.53;1.30;;;11.50;64.00;;;;;;5023803;28;20199;-82
2024/01/28 11:32:48;;;;;;;2.83;1.25;;;11.60;63.50;;;;;;5023114;28;20203;-83
2024/01/28 11:35:21;;;;;;;3.10;1.30;;;12.00;64.30;;;;;;5022588;28;20199;-82
2024/01/28 11:37:54;;;;;;;2.08;1.20;;;13.40;64.80;;;;;;5023231;28;20211;-82
2024/01/28 11:40:29;;;;;;;1.27;1.05;;;12.80;59.70;;;;;;5017182;28;20207;-82
2024/01/28 11:42:57;;;;;;;1.52;1.10;;;13.00;62.60;;;;;;5022056;28;20205;-83
2024/01/28 11:45:26;;;;;;;3.28;1.20;;;15.00;57.60;;;;;;5030360;28;20211;-83
2024/01/28 11:47:54;;;;;;;1.75;1.20;;;14.30;55.20;;;;;;5031137;28;20210;-83
2024/01/28 11:50:21;;;;;;;3.40;1.48;;;12.90;55.80;;;;;;5027543;28;20203;-83
2024/01/28 11:52:49;;;;;;;2.75;1.40;;;12.70;56.10;;;;;;5023931;28;20206;-83
2024/01/28 11:55:17;;;;;;;1.88;1.13;;;12.70;55.80;;;;;;5023335;28;20645;-82
2024/01/28 11:57:49;;;;;;;1.83;1.50;;;12.80;57.00;;;;;;5033041;28;20206;-82
2024/01/28 12:00:17;;;;;;;2.45;1.08;;;13.20;55.20;;;;;;5017860;28;20195;-82
2024/01/28 12:02:46;;;;;;;1.55;1.25;;;14.10;55.10;;;;;;5014136;28;20225;-82
2024/01/28 12:05:14;;;;;;;2.50;1.13;;;15.50;52.30;;;;;;5036793;28;20223;-82
2024/01/28 12:07:41;;;;;;;2.67;1.13;;;14.90;49.50;;;;;;5047619;28;20683;-82
2024/01/28 12:10:12;;;;;;;2.80;1.13;;;14.00;50.20;;;;;;5046555;28;20203;-82
2024/01/28 12:12:40;;;;;;;1.60;0.98;;;13.50;51.20;;;;;;5023158;28;20206;-82
2024/01/28 12:15:09;;;;;;;2.45;1.00;;;13.40;50.70;;;;;;5010772;28;20199;-82
2024/01/28 12:17:38;;;;;;;3.85;1.60;;;13.20;50.50;;;;;;5023032;28;20306;-82
2024/01/28 12:20:19;;;;;;;1.73;1.13;;;13.30;50.60;;;;;;5030654;28;20581;-82
2024/01/28 12:22:46;;;;;;;1.83;1.30;;;13.40;51.10;;;;;;5044393;28;20199;-82
2024/01/28 12:25:19;;;;;;;2.78;1.23;;;13.40;51.50;;;;;;5021087;28;20857;-84
2024/01/28 12:27:46;;;;;;;1.38;0.90;;;13.60;50.20;;;;;;5026626;28;20199;-83
2024/01/28 12:30:14;;;;;;;1.80;1.00;;;14.30;49.80;;;;;;5031267;28;20195;-83
2024/01/28 12:32:44;;;;;;;1.67;1.10;;;14.10;50.00;;;;;;5034999;28;20199;-83
2024/01/28 12:35:13;;;;;;;2.13;1.02;;;13.90;48.90;;;;;;5035401;28;20195;-83
2024/01/28 12:37:41;;;;;;;1.52;1.30;;;15.00;51.10;;;;;;5016358;28;20258;-82
2024/01/28 12:40:10;;;;;;;2.72;1.20;;;14.40;48.30;;;;;;5021767;28;20195;-82
2024/01/28 12:42:45;;;;;;;3.05;1.10;;;15.00;49.00;;;;;;5036177;28;20195;-83
2024/01/28 12:45:15;;;;;;;2.45;1.20;;;14.60;47.70;;;;;;5023861;28;20234;-83
2024/01/28 12:47:53;;;;;;;2.30;1.08;;;14.60;48.60;;;;;;5023157;28;20198;-83
2024/01/28 12:50:25;;;;;;;2.10;1.35;;;18.00;47.10;;;;;;5019843;28;20210;-83
2024/01/28 12:52:53;;;;;;;1.40;1.08;;;16.00;43.30;;;;;;5017746;28;20194;-83
2024/01/28 12:55:20;;;;;;;2.00;0.98;;;18.70;45.30;;;;;;5015029;28;20199;-83
2024/01/28 12:57:48;;;;;;;1.85;1.23;;;17.00;40.80;;;;;;5013879;28;20206;-83
2024/01/28 13:00:18;;;;;;;1.42;1.10;;;15.60;42.20;;;;;;5012161;28;20209;-83
2024/01/28 13:02:46;;;;;;;1.83;1.05;;;15.50;43.70;;;;;;5019437;28;20198;-84
2024/01/28 13:05:15;;;;;;;1.75;1.25;;;18.00;44.70;;;;;;5015280;28;20695;-83